createdAt,value
2023-02-18T00:00:18.178Z,98989.66
2023-02-18T00:02:23.133Z,98989.78
2023-02-18T00:04:28.135Z,98996.75
2023-02-18T00:06:34.975Z,98980.78
2023-02-18T00:08:39.710Z,98993.22
2023-02-18T00:10:47.205Z,98997.59
2023-02-18T00:12:52.030Z,98998.66
2023-02-18T00:14:59.917Z,99003.25
2023-02-18T00:17:04.737Z,99003.50
2023-02-18T00:19:13.251Z,98999.22
2023-02-18T00:21:18.497Z,98997.44
2023-02-18T00:23:23.310Z,98994.81
2023-02-18T00:25:28.776Z,98996.63
2023-02-18T00:27:36.699Z,98999.97
2023-02-18T00:29:41.635Z,98989.41
2023-02-18T00:31:46.616Z,99001.78
2023-02-18T00:33:51.568Z,98999.00
2023-02-18T00:36:03.711Z,98999.97
2023-02-18T00:38:08.470Z,98987.88
2023-02-18T00:40:14.049Z,98990.44
2023-02-18T00:42:18.802Z,98992.75
2023-02-18T00:44:26.285Z,98998.91
2023-02-18T00:46:31.476Z,98992.63
2023-02-18T00:48:39.617Z,98988.44
2023-02-18T00:50:44.443Z,98991.16
2023-02-18T00:52:49.269Z,98989.50
2023-02-18T00:54:54.256Z,98992.84
2023-02-18T00:56:59.069Z,98989.25
2023-02-18T00:59:04.268Z,98990.03
2023-02-18T01:01:13.233Z,98986.56
2023-02-18T01:03:18.922Z,98994.28
2023-02-18T01:05:24.282Z,98991.66
2023-02-18T01:07:29.224Z,98994.19
2023-02-18T01:09:34.089Z,98999.72
2023-02-18T01:11:38.911Z,98992.94
2023-02-18T01:13:44.385Z,99015.06
2023-02-18T01:15:49.211Z,99005.56
2023-02-18T01:17:56.619Z,99003.91
2023-02-18T01:20:01.610Z,99009.97
2023-02-18T01:22:06.876Z,99012.06
2023-02-18T01:24:13.077Z,99016.28
2023-02-18T01:26:17.981Z,99016.19
2023-02-18T01:28:25.347Z,99013.75
2023-02-18T01:30:30.219Z,99027.06
2023-02-18T01:32:35.410Z,99023.53
2023-02-18T01:34:42.834Z,99023.34
2023-02-18T01:36:47.612Z,99027.88
2023-02-18T01:38:55.476Z,99029.75
2023-02-18T01:41:01.148Z,99030.53
2023-02-18T01:43:06.980Z,99030.59
2023-02-18T01:45:26.609Z,99040.28
2023-02-18T01:47:31.440Z,99042.72
2023-02-18T01:49:40.524Z,99033.22
2023-02-18T01:51:51.440Z,99028.84
2023-02-18T01:53:59.477Z,99037.31
2023-02-18T01:56:09.506Z,99032.06
2023-02-18T01:58:16.183Z,99033.06
2023-02-18T02:00:23.339Z,99022.59
2023-02-18T02:02:30.894Z,99025.09
2023-02-18T02:04:36.395Z,99025.84
2023-02-18T02:06:41.286Z,99013.94
2023-02-18T02:08:52.109Z,99013.75
2023-02-18T02:11:15.820Z,99012.06
2023-02-18T02:13:30.183Z,99005.88
2023-02-18T02:15:40.902Z,99010.41
2023-02-18T02:18:03.993Z,99011.97
2023-02-18T02:20:45.095Z,99007.28
2023-02-18T02:23:30.958Z,99008.06
2023-02-18T02:25:59.443Z,98997.03
2023-02-18T02:28:28.608Z,99006.78
2023-02-18T02:30:55.196Z,98999.56
2023-02-18T02:33:23.190Z,99008.41
2023-02-18T02:35:34.099Z,98991.91
2023-02-18T02:37:45.357Z,98996.19
2023-02-18T02:39:59.962Z,98992.69
2023-02-18T02:42:16.837Z,98990.16
2023-02-18T02:44:24.708Z,98985.75
2023-02-18T02:46:34.847Z,98980.28
2023-02-18T02:48:47.102Z,98973.22
2023-02-18T02:51:07.084Z,98967.84
2023-02-18T02:53:20.351Z,98964.06
2023-02-18T02:55:25.317Z,98969.38
2023-02-18T02:57:55.376Z,98962.22
2023-02-18T03:00:11.219Z,98959.31
2023-02-18T03:02:29.024Z,98949.97
2023-02-18T03:04:55.563Z,98943.16
2023-02-18T03:07:17.260Z,98946.44
2023-02-18T03:09:30.179Z,98941.13
2023-02-18T03:11:45.656Z,98941.16
2023-02-18T03:14:07.996Z,98951.34
2023-02-18T03:16:26.858Z,98939.75
2023-02-18T03:18:36.701Z,98938.16
2023-02-18T03:20:46.188Z,98942.09
2023-02-18T03:22:55.739Z,98941.16
2023-02-18T03:25:02.791Z,98947.47
2023-02-18T03:27:12.691Z,98947.78
2023-02-18T03:29:21.091Z,98958.44
2023-02-18T03:31:31.732Z,98950.31
2023-02-18T03:33:41.135Z,98954.81
2023-02-18T03:35:50.078Z,98956.47
2023-02-18T03:38:04.202Z,98954.75
2023-02-18T03:40:12.494Z,98952.91
2023-02-18T03:42:19.481Z,98952.06
2023-02-18T03:44:24.493Z,98958.97
2023-02-18T03:46:30.192Z,98954.00
2023-02-18T03:48:37.094Z,98956.72
2023-02-18T03:50:39.439Z,98946.97
2023-02-18T03:52:44.321Z,98952.47
2023-02-18T03:54:51.786Z,98964.53
2023-02-18T03:56:56.649Z,98956.28
2023-02-18T03:59:01.446Z,98955.25
2023-02-18T04:01:07.306Z,98950.94
2023-02-18T04:03:12.113Z,98962.13
2023-02-18T04:05:16.973Z,98953.47
2023-02-18T04:07:21.803Z,98959.53
2023-02-18T04:09:26.788Z,98961.25
2023-02-18T04:11:34.182Z,98960.44
2023-02-18T04:13:39.041Z,98963.34
2023-02-18T04:15:43.961Z,98960.66
2023-02-18T04:17:48.953Z,98954.63
2023-02-18T04:19:53.824Z,98959.59
2023-02-18T04:21:58.673Z,98956.72
2023-02-18T04:24:03.991Z,98966.25
2023-02-18T04:26:08.837Z,98960.09
2023-02-18T04:28:17.425Z,98957.09
2023-02-18T04:30:22.744Z,98959.53
2023-02-18T04:32:27.675Z,98962.13
2023-02-18T04:34:32.584Z,98956.19
2023-02-18T04:36:37.520Z,98958.69
2023-02-18T04:38:43.243Z,98955.94
2023-02-18T04:40:48.174Z,98953.47
2023-02-18T04:42:52.994Z,98961.50
2023-02-18T04:45:01.166Z,98960.75
2023-02-18T04:47:06.834Z,98958.97
2023-02-18T04:49:11.681Z,98959.59
2023-02-18T04:51:16.589Z,98955.44
2023-02-18T04:53:21.419Z,98948.44
2023-02-18T04:55:26.387Z,98955.34
2023-02-18T04:57:31.133Z,98957.28
2023-02-18T04:59:36.088Z,98952.88
2023-02-18T05:01:43.518Z,98966.09
2023-02-18T05:03:48.759Z,98954.72
2023-02-18T05:05:55.160Z,98957.41
2023-02-18T05:07:59.768Z,98950.69
2023-02-18T05:10:04.536Z,98960.25
2023-02-18T05:12:10.401Z,98961.19
2023-02-18T05:14:15.205Z,98960.28
2023-02-18T05:16:20.003Z,98963.88
2023-02-18T05:18:27.425Z,98973.50
2023-02-18T05:20:32.551Z,98969.16
2023-02-18T05:22:37.231Z,98959.94
2023-02-18T05:24:42.251Z,98971.31
2023-02-18T05:26:47.138Z,98960.97
2023-02-18T05:28:52.025Z,98955.88
2023-02-18T05:30:56.906Z,98960.03
2023-02-18T05:33:01.744Z,98957.34
2023-02-18T05:35:10.547Z,98952.03
2023-02-18T05:37:15.383Z,98956.59
2023-02-18T05:39:20.236Z,98967.97
2023-02-18T05:41:25.251Z,98970.41
2023-02-18T05:43:30.053Z,98964.25
2023-02-18T05:45:32.426Z,98964.00
2023-02-18T05:47:37.343Z,98969.44
2023-02-18T05:49:43.936Z,98953.72
2023-02-18T05:51:51.334Z,98951.22
2023-02-18T05:53:56.524Z,98953.53
2023-02-18T05:56:01.041Z,98953.69
2023-02-18T05:58:05.938Z,98945.03
2023-02-18T06:00:12.208Z,98950.34
2023-02-18T06:02:17.080Z,98937.44
2023-02-18T06:04:21.872Z,98940.06
2023-02-18T06:06:27.006Z,98941.06
2023-02-18T06:08:34.483Z,98950.47
2023-02-18T06:10:39.375Z,98939.00
2023-02-18T06:12:44.198Z,98945.06
2023-02-18T06:14:49.704Z,98937.03
2023-02-18T06:16:56.222Z,98947.25
2023-02-18T06:19:01.227Z,98934.94
2023-02-18T06:21:06.987Z,98938.44
2023-02-18T06:23:11.857Z,98934.78
2023-02-18T06:25:19.251Z,98932.44
2023-02-18T06:27:24.220Z,98931.47
2023-02-18T06:29:30.329Z,98921.88
2023-02-18T06:31:35.492Z,98913.25
2023-02-18T06:33:40.420Z,98916.56
2023-02-18T06:35:45.732Z,98911.47
2023-02-18T06:37:50.555Z,98909.63
2023-02-18T06:39:55.361Z,98908.03
2023-02-18T06:42:02.805Z,98901.88
2023-02-18T06:44:08.044Z,98896.59
2023-02-18T06:46:13.016Z,98907.13
2023-02-18T06:48:17.939Z,98901.75
2023-02-18T06:50:22.946Z,98890.59
2023-02-18T06:52:27.925Z,98885.31
2023-02-18T06:54:32.909Z,98883.63
2023-02-18T06:56:37.843Z,98886.03
2023-02-18T06:58:45.446Z,98891.44
2023-02-18T07:00:50.388Z,98890.44
2023-02-18T07:02:55.318Z,98883.31
2023-02-18T07:05:00.171Z,98880.84
2023-02-18T07:07:04.970Z,98882.78
2023-02-18T07:09:10.076Z,98893.13
2023-02-18T07:11:14.864Z,98893.94
2023-02-18T07:13:19.751Z,98888.84
2023-02-18T07:15:28.096Z,98877.47
2023-02-18T07:17:33.328Z,98881.88
2023-02-18T07:19:38.191Z,98882.72
2023-02-18T07:21:43.018Z,98874.56
2023-02-18T07:23:47.849Z,98884.97
2023-02-18T07:25:52.802Z,98876.41
2023-02-18T07:28:00.386Z,98874.31
2023-02-18T07:30:05.216Z,98865.81
2023-02-18T07:32:14.744Z,98862.81
2023-02-18T07:34:19.951Z,98866.59
2023-02-18T07:36:24.821Z,98853.56
2023-02-18T07:38:31.283Z,98874.38
2023-02-18T07:40:36.109Z,98864.03
2023-02-18T07:42:40.956Z,98866.50
2023-02-18T07:44:46.402Z,98863.66
2023-02-18T07:46:51.367Z,98862.72
2023-02-18T07:48:59.582Z,98861.88
2023-02-18T07:51:04.459Z,98865.16
2023-02-18T07:53:10.032Z,98852.78
2023-02-18T07:55:14.926Z,98851.06
2023-02-18T07:57:19.730Z,98848.28
2023-02-18T07:59:24.879Z,98846.47
2023-02-18T08:01:29.707Z,98840.31
2023-02-18T08:03:36.250Z,98835.69
2023-02-18T08:05:43.783Z,98840.06
2023-02-18T08:07:48.733Z,98829.56
2023-02-18T08:09:53.698Z,98822.53
2023-02-18T08:11:58.766Z,98816.41
2023-02-18T08:14:03.539Z,98829.28
2023-02-18T08:16:09.755Z,98832.03
2023-02-18T08:18:19.164Z,98819.91
2023-02-18T08:20:24.344Z,98817.31
2023-02-18T08:22:31.806Z,98801.94
2023-02-18T08:24:36.693Z,98797.50
2023-02-18T08:26:58.066Z,98800.22
2023-02-18T08:29:04.788Z,98800.34
2023-02-18T08:31:10.960Z,98793.22
2023-02-18T08:33:15.691Z,98800.03
2023-02-18T08:35:20.908Z,98797.50
2023-02-18T08:37:31.428Z,98785.84
2023-02-18T08:39:56.222Z,98785.63
2023-02-18T08:42:01.307Z,98785.44
2023-02-18T08:44:06.354Z,98780.44
2023-02-18T08:46:15.847Z,98783.03
2023-02-18T08:48:21.261Z,98779.09
2023-02-18T08:50:26.798Z,98768.06
2023-02-18T08:52:34.235Z,98767.44
2023-02-18T08:54:39.069Z,98762.91
2023-02-18T08:56:44.675Z,98776.94
2023-02-18T08:58:49.443Z,98768.78
2023-02-18T09:00:57.395Z,98763.13
2023-02-18T09:03:02.220Z,98757.09
2023-02-18T09:05:07.488Z,98742.25
2023-02-18T09:07:12.376Z,98743.81
2023-02-18T09:09:20.053Z,98734.81
2023-02-18T09:11:24.858Z,98717.25
2023-02-18T09:13:30.861Z,98716.75
2023-02-18T09:15:35.626Z,98700.22
2023-02-18T09:17:40.541Z,98707.66
2023-02-18T09:19:45.436Z,98693.22
2023-02-18T09:21:51.853Z,98715.56
2023-02-18T09:23:56.939Z,98696.50
2023-02-18T09:26:08.094Z,98700.03
2023-02-18T09:28:13.003Z,98674.63
2023-02-18T09:30:18.170Z,98695.28
2023-02-18T09:32:34.236Z,98705.75
2023-02-18T09:34:40.050Z,98708.38
2023-02-18T09:36:44.590Z,98718.91
2023-02-18T09:38:49.984Z,98724.13
2023-02-18T09:40:58.334Z,98724.84
2023-02-18T09:43:06.147Z,98715.19
2023-02-18T09:45:16.646Z,98717.25
2023-02-18T09:47:28.994Z,98710.50
2023-02-18T09:49:36.854Z,98721.78
2023-02-18T09:51:41.684Z,98709.25
2023-02-18T09:53:47.705Z,98720.19
2023-02-18T09:55:57.962Z,98710.59
2023-02-18T09:58:08.162Z,98704.97
2023-02-18T10:00:17.412Z,98705.16
2023-02-18T10:02:22.531Z,98705.97
2023-02-18T10:04:32.292Z,98679.00
2023-02-18T10:06:38.139Z,98681.88
2023-02-18T10:08:47.274Z,98680.13
2023-02-18T10:10:52.313Z,98683.59
2023-02-18T10:12:58.261Z,98693.75
2023-02-18T10:15:05.704Z,98694.56
2023-02-18T10:17:11.317Z,98698.91
2023-02-18T10:19:24.781Z,98685.25
2023-02-18T10:21:33.085Z,98683.09
2023-02-18T10:23:42.046Z,98683.28
2023-02-18T10:25:49.357Z,98676.59
2023-02-18T10:27:56.743Z,98677.44
2023-02-18T10:30:21.277Z,98665.31
2023-02-18T10:32:27.904Z,98670.16
2023-02-18T10:34:44.212Z,98655.13
2023-02-18T10:36:52.588Z,98654.34
2023-02-18T10:39:32.917Z,98651.22
2023-02-18T10:41:45.066Z,98649.97
2023-02-18T10:43:58.931Z,98646.22
2023-02-18T10:46:15.453Z,98657.13
2023-02-18T10:48:35.906Z,98643.19
2023-02-18T10:50:42.846Z,98651.53
2023-02-18T10:52:52.133Z,98643.47
2023-02-18T10:55:04.485Z,98646.97
2023-02-18T10:57:18.362Z,98641.88
2023-02-18T10:59:25.486Z,98642.88
2023-02-18T11:01:34.100Z,98637.63
2023-02-18T11:03:45.316Z,98633.38
2023-02-18T11:05:52.919Z,98640.44
2023-02-18T11:08:02.722Z,98642.34
2023-02-18T11:10:18.278Z,98656.31
2023-02-18T11:12:25.035Z,98621.59
2023-02-18T11:14:41.342Z,98622.56
2023-02-18T11:16:55.999Z,98621.00
2023-02-18T11:19:04.342Z,98620.25
2023-02-18T11:21:22.990Z,98599.13
2023-02-18T11:23:27.768Z,98620.09
2023-02-18T11:25:37.106Z,98625.69
2023-02-18T11:27:46.618Z,98588.81
2023-02-18T11:29:54.986Z,98595.38
2023-02-18T11:32:04.212Z,98589.53
2023-02-18T11:34:13.544Z,98592.91
2023-02-18T11:36:24.852Z,98594.88
2023-02-18T11:38:33.399Z,98588.53
2023-02-18T11:40:39.387Z,98572.22
2023-02-18T11:42:44.241Z,98578.38
2023-02-18T11:44:55.652Z,98591.28
2023-02-18T11:47:06.127Z,98570.38
2023-02-18T11:49:24.436Z,98580.19
2023-02-18T11:51:36.730Z,98556.38
2023-02-18T11:53:41.858Z,98559.47
2023-02-18T11:55:56.355Z,98562.16
2023-02-18T11:58:03.379Z,98564.56
2023-02-18T12:00:19.015Z,98563.41
2023-02-18T12:02:36.200Z,98556.88
2023-02-18T12:04:46.412Z,98543.41
2023-02-18T12:06:57.858Z,98557.47
2023-02-18T12:09:09.209Z,98551.91
2023-02-18T12:11:25.872Z,98540.84
2023-02-18T12:13:35.319Z,98558.16
2023-02-18T12:15:53.986Z,98538.94
2023-02-18T12:18:16.528Z,98550.03
2023-02-18T12:20:38.789Z,98550.69
2023-02-18T12:22:46.279Z,98552.63
2023-02-18T12:25:07.059Z,98543.47
2023-02-18T12:27:20.239Z,98535.72
2023-02-18T12:29:40.861Z,98528.06
2023-02-18T12:32:07.391Z,98537.03
2023-02-18T12:34:29.086Z,98542.66
2023-02-18T12:36:51.279Z,98534.13
2023-02-18T12:39:11.579Z,98563.38
2023-02-18T12:41:42.578Z,98527.72
2023-02-18T12:43:58.974Z,98523.81
2023-02-18T12:46:24.185Z,98520.31
2023-02-18T12:48:54.242Z,98513.97
2023-02-18T12:51:12.607Z,98524.56
2023-02-18T12:53:39.971Z,98526.28
2023-02-18T12:56:00.853Z,98508.88
2023-02-18T12:58:16.281Z,98515.72
2023-02-18T13:00:49.066Z,98493.78
2023-02-18T13:03:25.779Z,98511.78
2023-02-18T13:05:36.823Z,98514.31
2023-02-18T13:08:01.549Z,98515.03
2023-02-18T13:10:24.898Z,98495.69
2023-02-18T13:12:38.039Z,98501.50
2023-02-18T13:14:49.270Z,98500.19
2023-02-18T13:16:57.752Z,98500.75
2023-02-18T13:19:10.463Z,98499.94
2023-02-18T13:21:16.835Z,98497.97
2023-02-18T13:23:26.510Z,98490.13
2023-02-18T13:25:32.226Z,98484.28
2023-02-18T13:27:43.835Z,98508.69
2023-02-18T13:29:55.135Z,98501.16
2023-02-18T13:32:11.944Z,98497.50
2023-02-18T13:34:24.448Z,98498.84
2023-02-18T13:36:42.062Z,98488.69
2023-02-18T13:39:05.626Z,98485.03
2023-02-18T13:41:11.375Z,98485.13
2023-02-18T13:43:32.023Z,98492.09
2023-02-18T13:45:37.018Z,98481.53
2023-02-18T13:47:44.243Z,98479.91
2023-02-18T13:49:49.089Z,98483.09
2023-02-18T13:51:56.240Z,98484.72
2023-02-18T13:54:09.517Z,98497.94
2023-02-18T13:56:24.344Z,98497.78
2023-02-18T13:58:34.546Z,98491.47
2023-02-18T14:00:43.230Z,98487.44
2023-02-18T14:02:59.996Z,98494.19
2023-02-18T14:05:24.464Z,98509.97
2023-02-18T14:07:41.659Z,98513.13
2023-02-18T14:09:49.407Z,98510.81
2023-02-18T14:12:00.893Z,98510.50
2023-02-18T14:14:47.308Z,98499.50
2023-02-18T14:17:16.874Z,98505.94
2023-02-18T14:19:31.391Z,98512.34
2023-02-18T14:21:42.240Z,98510.94
2023-02-18T14:23:58.948Z,98509.09
2023-02-18T14:26:13.136Z,98517.59
2023-02-18T14:28:44.949Z,98515.00
2023-02-18T14:30:50.350Z,98526.19
2023-02-18T14:33:00.280Z,98513.97
2023-02-18T14:35:29.658Z,98512.13
2023-02-18T14:38:04.276Z,98493.50
2023-02-18T14:40:24.279Z,98493.50
2023-02-18T14:42:42.420Z,98502.97
2023-02-18T14:45:12.411Z,98504.31
2023-02-18T14:47:38.824Z,98495.91
2023-02-18T14:49:47.628Z,98502.00
2023-02-18T14:51:55.154Z,98514.19
2023-02-18T14:54:05.369Z,98522.00
2023-02-18T14:56:13.844Z,98528.88
2023-02-18T14:58:36.440Z,98542.25
2023-02-18T15:00:44.319Z,98537.34
2023-02-18T15:02:52.120Z,98541.03
2023-02-18T15:04:57.669Z,98542.84
2023-02-18T15:07:05.040Z,98536.25
2023-02-18T15:09:17.828Z,98545.41
2023-02-18T15:11:24.371Z,98557.75
2023-02-18T15:13:35.020Z,98572.88
2023-02-18T15:15:39.897Z,98557.34
2023-02-18T15:17:50.611Z,98571.66
2023-02-18T15:20:01.526Z,98561.47
2023-02-18T15:22:06.410Z,98571.53
2023-02-18T15:24:18.979Z,98573.00
2023-02-18T15:26:24.824Z,98566.84
2023-02-18T15:28:34.435Z,98570.31
2023-02-18T15:30:41.041Z,98569.69
2023-02-18T15:32:49.019Z,98578.56
2023-02-18T15:34:56.396Z,98580.69
2023-02-18T15:37:03.668Z,98599.88
2023-02-18T15:39:08.486Z,98591.59
2023-02-18T15:41:17.046Z,98589.75
2023-02-18T15:43:25.223Z,98594.13
2023-02-18T15:45:38.004Z,98588.78
2023-02-18T15:47:47.005Z,98591.47
2023-02-18T15:49:55.626Z,98595.22
2023-02-18T15:52:03.489Z,98605.53
2023-02-18T15:54:08.523Z,98603.13
2023-02-18T15:56:18.894Z,98596.69
2023-02-18T15:58:26.710Z,98593.94
2023-02-18T16:00:38.143Z,98589.75
2023-02-18T16:02:55.598Z,98582.72
2023-02-18T16:05:05.245Z,98597.44
2023-02-18T16:07:24.470Z,98591.94
2023-02-18T16:09:32.643Z,98588.34
2023-02-18T16:11:40.882Z,98596.09
2023-02-18T16:13:49.603Z,98590.88
2023-02-18T16:16:00.773Z,98612.91
2023-02-18T16:18:07.138Z,98608.22
2023-02-18T16:20:28.059Z,98613.34
2023-02-18T16:22:38.083Z,98610.69
2023-02-18T16:24:44.270Z,98609.06
2023-02-18T16:26:49.552Z,98618.78
2023-02-18T16:28:55.930Z,98624.03
2023-02-18T16:31:03.494Z,98621.13
2023-02-18T16:33:08.317Z,98628.22
2023-02-18T16:35:14.148Z,98622.38
2023-02-18T16:37:31.408Z,98626.94
2023-02-18T16:39:37.967Z,98630.28
2023-02-18T16:41:44.837Z,98638.13
2023-02-18T16:43:50.536Z,98629.38
2023-02-18T16:45:57.655Z,98630.47
2023-02-18T16:48:05.375Z,98641.59
2023-02-18T16:50:19.838Z,98625.72
2023-02-18T16:52:24.624Z,98638.66
2023-02-18T16:54:30.491Z,98630.88
2023-02-18T16:56:37.060Z,98640.09
2023-02-18T16:58:41.875Z,98649.75
2023-02-18T17:00:48.053Z,98648.03
2023-02-18T17:02:56.384Z,98637.56
2023-02-18T17:05:06.263Z,98642.66
2023-02-18T17:07:14.917Z,98646.22
2023-02-18T17:09:21.367Z,98650.28
2023-02-18T17:11:28.725Z,98650.31
2023-02-18T17:13:34.206Z,98649.59
2023-02-18T17:15:39.074Z,98642.09
2023-02-18T17:17:44.201Z,98641.91
2023-02-18T17:19:49.038Z,98659.91
2023-02-18T17:21:56.412Z,98658.38
2023-02-18T17:24:02.178Z,98650.88
2023-02-18T17:26:13.209Z,98653.88
2023-02-18T17:28:19.464Z,98664.97
2023-02-18T17:30:24.514Z,98667.50
2023-02-18T17:32:29.448Z,98665.09
2023-02-18T17:34:36.271Z,98674.69
2023-02-18T17:36:45.427Z,98667.63
2023-02-18T17:38:52.867Z,98677.16
2023-02-18T17:40:59.064Z,98669.28
2023-02-18T17:43:03.890Z,98674.56
2023-02-18T17:45:19.574Z,98688.34
2023-02-18T17:47:24.149Z,98687.78
2023-02-18T17:49:29.003Z,98681.16
2023-02-18T17:51:34.987Z,98688.13
2023-02-18T17:53:39.781Z,98683.00
2023-02-18T17:55:48.721Z,98689.84
2023-02-18T17:58:11.490Z,98695.19
2023-02-18T18:00:19.751Z,98690.69
2023-02-18T18:02:30.467Z,98686.38
2023-02-18T18:04:35.427Z,98693.31
2023-02-18T18:06:40.290Z,98689.03
2023-02-18T18:08:45.254Z,98692.34
2023-02-18T18:10:55.769Z,98685.75
2023-02-18T18:13:01.149Z,98700.69
2023-02-18T18:15:19.324Z,98691.19
2023-02-18T18:17:24.167Z,98694.81
2023-02-18T18:19:30.376Z,98706.88
2023-02-18T18:21:37.355Z,98684.19
2023-02-18T18:23:42.159Z,98682.25
2023-02-18T18:25:48.600Z,98686.66
2023-02-18T18:27:56.579Z,98692.78
2023-02-18T18:30:01.920Z,98680.72
2023-02-18T18:32:06.605Z,98690.38
2023-02-18T18:34:12.817Z,98684.44
2023-02-18T18:36:19.652Z,98695.81
2023-02-18T18:38:26.373Z,98701.88
2023-02-18T18:40:32.996Z,98694.97
2023-02-18T18:42:37.801Z,98691.66
2023-02-18T18:44:45.296Z,98694.84
2023-02-18T18:46:50.183Z,98698.88
2023-02-18T18:48:57.107Z,98693.09
2023-02-18T18:51:02.563Z,98692.00
2023-02-18T18:53:07.667Z,98689.63
2023-02-18T18:55:23.399Z,98689.72
2023-02-18T18:57:28.458Z,98690.59
2023-02-18T18:59:33.038Z,98699.13
2023-02-18T19:01:40.567Z,98700.75
2023-02-18T19:03:45.899Z,98689.44
2023-02-18T19:05:51.837Z,98697.56
2023-02-18T19:07:59.771Z,98684.44
2023-02-18T19:10:04.556Z,98694.81
2023-02-18T19:12:09.555Z,98698.03
2023-02-18T19:14:15.990Z,98696.50
2023-02-18T19:16:22.814Z,98697.44
2023-02-18T19:18:32.538Z,98698.03
2023-02-18T19:20:39.526Z,98695.41
2023-02-18T19:22:45.397Z,98693.44
2023-02-18T19:24:50.375Z,98703.84
2023-02-18T19:26:55.161Z,98706.47
2023-02-18T19:28:59.991Z,98709.03
2023-02-18T19:31:05.103Z,98708.97
2023-02-18T19:33:10.152Z,98710.91
2023-02-18T19:35:17.764Z,98707.28
2023-02-18T19:37:23.433Z,98710.84
2023-02-18T19:39:28.284Z,98710.50
2023-02-18T19:41:33.031Z,98708.75
2023-02-18T19:43:38.526Z,98706.94
2023-02-18T19:45:45.095Z,98715.59
2023-02-18T19:47:50.086Z,98715.66
2023-02-18T19:49:56.023Z,98721.94
2023-02-18T19:52:04.500Z,98712.22
2023-02-18T19:54:09.637Z,98716.13
2023-02-18T19:56:14.596Z,98723.03
2023-02-18T19:58:19.378Z,98710.91
2023-02-18T20:00:25.250Z,98720.31
2023-02-18T20:02:31.463Z,98710.97
2023-02-18T20:04:36.878Z,98715.22
2023-02-18T20:06:41.693Z,98716.91
2023-02-18T20:08:49.710Z,98713.91
2023-02-18T20:10:59.620Z,98718.38
2023-02-18T20:13:05.908Z,98720.75
2023-02-18T20:15:11.488Z,98723.41
2023-02-18T20:17:16.290Z,98719.03
2023-02-18T20:19:21.089Z,98720.16
2023-02-18T20:21:26.885Z,98721.53
2023-02-18T20:23:31.652Z,98714.81
2023-02-18T20:25:41.486Z,98708.06
2023-02-18T20:27:59.731Z,98721.97
2023-02-18T20:30:06.191Z,98713.31
2023-02-18T20:32:11.852Z,98719.53
2023-02-18T20:34:16.778Z,98720.38
2023-02-18T20:36:21.996Z,98730.00
2023-02-18T20:38:26.599Z,98719.75
2023-02-18T20:40:31.479Z,98725.69
2023-02-18T20:42:38.971Z,98716.34
2023-02-18T20:44:43.732Z,98711.97
2023-02-18T20:46:48.986Z,98713.75
2023-02-18T20:48:53.826Z,98715.03
2023-02-18T20:51:01.626Z,98722.88
2023-02-18T20:53:06.402Z,98711.56
2023-02-18T20:55:11.455Z,98721.03
2023-02-18T20:57:16.195Z,98720.31
2023-02-18T20:59:24.261Z,98712.34
2023-02-18T21:01:29.159Z,98706.47
2023-02-18T21:03:34.623Z,98714.06
2023-02-18T21:05:39.638Z,98722.53
2023-02-18T21:07:44.638Z,98705.50
2023-02-18T21:09:49.580Z,98719.41
2023-02-18T21:11:56.012Z,98721.03
2023-02-18T21:14:01.601Z,98726.41
2023-02-18T21:16:10.526Z,98721.41
2023-02-18T21:18:15.816Z,98724.94
2023-02-18T21:20:20.398Z,98726.63
2023-02-18T21:22:25.233Z,98723.25
2023-02-18T21:24:32.071Z,98722.22
2023-02-18T21:26:38.939Z,98723.25
2023-02-18T21:28:43.945Z,98724.38
2023-02-18T21:30:49.208Z,98727.75
2023-02-18T21:32:59.709Z,98725.34
2023-02-18T21:35:04.691Z,98723.50
2023-02-18T21:37:09.526Z,98722.84
2023-02-18T21:39:14.638Z,98728.88
2023-02-18T21:41:19.433Z,98729.69
2023-02-18T21:43:24.338Z,98726.28
2023-02-18T21:45:32.753Z,98723.59
2023-02-18T21:47:39.524Z,98729.50
2023-02-18T21:49:47.488Z,98727.06
2023-02-18T21:52:08.654Z,98721.94
2023-02-18T21:54:13.617Z,98718.41
2023-02-18T21:56:18.608Z,98714.91
2023-02-18T21:58:23.450Z,98721.91
2023-02-18T22:00:28.278Z,98717.72
2023-02-18T22:02:35.687Z,98716.81
2023-02-18T22:04:40.852Z,98715.16
2023-02-18T22:06:48.663Z,98721.06
2023-02-18T22:08:56.078Z,98713.19
2023-02-18T22:11:00.874Z,98709.91
2023-02-18T22:13:05.761Z,98708.25
2023-02-18T22:15:11.721Z,98706.41
2023-02-18T22:17:17.420Z,98703.72
2023-02-18T22:19:22.384Z,98704.72
2023-02-18T22:21:27.490Z,98707.50
2023-02-18T22:23:36.490Z,98707.31
2023-02-18T22:25:41.242Z,98700.25
2023-02-18T22:27:46.734Z,98699.63
2023-02-18T22:29:51.494Z,98695.59
2023-02-18T22:31:56.342Z,98705.16
2023-02-18T22:34:02.973Z,98698.19
2023-02-18T22:36:10.072Z,98696.31
2023-02-18T22:38:14.843Z,98697.00
2023-02-18T22:40:22.351Z,98702.16
2023-02-18T22:42:27.289Z,98701.41
2023-02-18T22:44:32.230Z,98699.31
2023-02-18T22:46:38.828Z,98697.47
2023-02-18T22:48:43.834Z,98689.59
2023-02-18T22:50:48.635Z,98678.31
2023-02-18T22:52:55.917Z,98680.06
2023-02-18T22:55:00.743Z,98673.69
2023-02-18T22:57:08.112Z,98669.34
2023-02-18T22:59:13.931Z,98669.13
2023-02-18T23:01:23.743Z,98675.50
2023-02-18T23:03:29.349Z,98675.50
2023-02-18T23:05:36.967Z,98671.84
2023-02-18T23:07:41.742Z,98672.47
2023-02-18T23:09:46.580Z,98670.19
2023-02-18T23:11:55.695Z,98665.56
2023-02-18T23:14:15.610Z,98665.59
2023-02-18T23:16:22.648Z,98662.38
2023-02-18T23:18:27.536Z,98668.41
2023-02-18T23:20:44.882Z,98657.97
2023-02-18T23:22:49.641Z,98654.31
2023-02-18T23:24:55.671Z,98655.16
2023-02-18T23:27:00.449Z,98647.25
2023-02-18T23:29:08.257Z,98650.53
2023-02-18T23:31:13.666Z,98641.91
2023-02-18T23:33:18.892Z,98642.25
2023-02-18T23:35:23.718Z,98643.84
2023-02-18T23:37:42.749Z,98640.28
2023-02-18T23:39:48.444Z,98642.63
2023-02-18T23:41:54.046Z,98648.84
2023-02-18T23:43:59.567Z,98652.50
2023-02-18T23:46:07.283Z,98649.81
2023-02-18T23:48:12.097Z,98649.03
2023-02-18T23:50:17.991Z,98643.25
2023-02-18T23:52:22.809Z,98645.13
2023-02-18T23:54:28.250Z,98650.34
2023-02-18T23:56:33.162Z,98650.19
2023-02-18T23:58:38.618Z,98652.78
